IJmuiden, Nederland

12:21 PM CEST op 04 september 2015 (GMT +0200)
Centrum | | Change Station
CLOSE
Current Station
Persoonlijk weerstation
Location: IJmuiden, NOORD-HOLLAND
Geometrische hoogte: 36 ft
Nabije weerstations

Hoogte 36 ft 52.46 °N, 4.61 °E | Updated 8 seconds ago

Light Rain
Lichte regen
59.2 °F
Voelt als 59.2 °F
N
5.6
Wind Variabel Wind van west
Gusts 9.8 mijl/u

Vandaag
Hoog -- | Laag -- °F
--% Kans op neerslag
Gisteren
Hoog -- | Laag -- °F
Precip. -- inches
6:56 AM 8:23 PM
Afnemende maan, 61% visible
Druk 29.80 inches
Zicht 5.6 mijlen
Wolken Gering 1100 ft
Gering 1500 ft
Licht bewolkt 2400 ft
Merendeels bewolkt 2800 ft
Dauwpunt 59 °F
Vochtigheid 98%
Neerslag 0.21 inches
Dikte sneeuw Niet beschikbaar.
UV 0.0 van de 12
Pollen Niet beschikbaar.
Luchtkwaliteit Niet beschikbaar.
Flu Activity Niet beschikbaar.
SPECI EHKD 041016Z AUTO 26025G35KT 9000 -RADZ FEW011 FEW015TCU SCT024 BKN028 14/13 Q1009 WHT 28020G30KT 9999 SCT015 SCT040 BKN060 TEMPO 28025G35KT 4100 SHRA RA FEW009 SCT013 SCT018CB BKN030
Druk 29.80 inches
Zicht 5.6 mijlen
Wolken Gering 1100 ft
Gering 1500 ft
Licht bewolkt 2400 ft
Merendeels bewolkt 2800 ft
Dauwpunt 59 °F
Vochtigheid 98%
Neerslag 0.21 inches
Dikte sneeuw Niet beschikbaar.
UV 0.0 van de 12
Pollen Niet beschikbaar.
Luchtkwaliteit Niet beschikbaar.
Flu Activity Niet beschikbaar.
SPECI EHKD 041016Z AUTO 26025G35KT 9000 -RADZ FEW011 FEW015TCU SCT024 BKN028 14/13 Q1009 WHT 28020G30KT 9999 SCT015 SCT040 BKN060 TEMPO 28025G35KT 4100 SHRA RA FEW009 SCT013 SCT018CB BKN030

10-Day Weather Forecast

×

Almanac

Astronomie

Sep. 04, 2015 Opkomst Ondergang
Werkelijke tijd
Burgerlijke schemering
Nautische schemering
Astronomische schemering
Maan
Golflengte van het zichtbare licht
Daglengte
Tomorrow will be .
, % of the Moon is Illuminated

Extremen vandaag

Country Highs Country Lows

Community

WunderPhotos

Upload Photos

1,852,146 foto’s ge-upload!

WunderBlogs® & News

Nearby

Luchtkwaliteit

  Luchtkwaliteit LK-index Verontreinigende stof
Not available.

Dikte sneeuw

Station Depth Geometrische hoogte

Aardbevingen

Stad Distance Mag. Time & Date
Minimum magnitude displayed is 2.5.

Watertemperatuur langs de kust

Plaats Temperatuur

Stations

Nabije weerstations

Locatie station Temp. Gevoelstemperatuur Dauwpunt Vochtigheid Wind Precip. Hoogte Geactualiseerd Type